sensor_id;sensor_type;location;lat;lon;timestamp;P1;durP1;ratioP1;P2;durP2;ratioP2
20669;SDS011;10494;50.868;4.180;2023-08-07T00:02:23;10.35;;;2.70;;
20669;SDS011;10494;50.868;4.180;2023-08-07T00:04:49;12.95;;;3.00;;
20669;SDS011;10494;50.868;4.180;2023-08-07T00:07:15;12.52;;;3.60;;
20669;SDS011;10494;50.868;4.180;2023-08-07T00:09:41;11.52;;;2.63;;
20669;SDS011;10494;50.868;4.180;2023-08-07T00:12:06;8.93;;;3.30;;
20669;SDS011;10494;50.868;4.180;2023-08-07T00:14:32;8.40;;;2.97;;
20669;SDS011;10494;50.868;4.180;2023-08-07T00:16:58;8.60;;;2.67;;
20669;SDS011;10494;50.868;4.180;2023-08-07T00:19:23;7.22;;;2.90;;
20669;SDS011;10494;50.868;4.180;2023-08-07T00:21:49;10.10;;;2.95;;
20669;SDS011;10494;50.868;4.180;2023-08-07T00:24:14;10.73;;;3.47;;
20669;SDS011;10494;50.868;4.180;2023-08-07T00:26:40;5.43;;;2.33;;
20669;SDS011;10494;50.868;4.180;2023-08-07T00:29:06;7.32;;;2.65;;
20669;SDS011;10494;50.868;4.180;2023-08-07T00:31:31;8.88;;;2.50;;
20669;SDS011;10494;50.868;4.180;2023-08-07T00:33:57;8.27;;;3.47;;
20669;SDS011;10494;50.868;4.180;2023-08-07T00:36:23;8.98;;;2.75;;
20669;SDS011;10494;50.868;4.180;2023-08-07T00:38:49;9.73;;;2.70;;
20669;SDS011;10494;50.868;4.180;2023-08-07T00:41:16;10.90;;;2.80;;
20669;SDS011;10494;50.868;4.180;2023-08-07T00:43:43;7.95;;;2.70;;
20669;SDS011;10494;50.868;4.180;2023-08-07T00:46:08;7.28;;;2.85;;
20669;SDS011;10494;50.868;4.180;2023-08-07T00:48:34;12.20;;;3.15;;
20669;SDS011;10494;50.868;4.180;2023-08-07T00:51:00;10.20;;;2.30;;
20669;SDS011;10494;50.868;4.180;2023-08-07T00:53:27;6.15;;;2.40;;
20669;SDS011;10494;50.868;4.180;2023-08-07T00:55:53;8.90;;;3.00;;
20669;SDS011;10494;50.868;4.180;2023-08-07T00:58:18;7.10;;;2.65;;
20669;SDS011;10494;50.868;4.180;2023-08-07T01:00:44;7.63;;;2.53;;
20669;SDS011;10494;50.868;4.180;2023-08-07T01:03:11;10.13;;;2.83;;
20669;SDS011;10494;50.868;4.180;2023-08-07T01:05:38;4.55;;;2.28;;
20669;SDS011;10494;50.868;4.180;2023-08-07T01:08:04;7.60;;;2.60;;
20669;SDS011;10494;50.868;4.180;2023-08-07T01:13:29;6.45;;;2.33;;
20669;SDS011;10494;50.868;4.180;2023-08-07T01:16:01;7.07;;;2.63;;
20669;SDS011;10494;50.868;4.180;2023-08-07T01:18:35;6.85;;;2.78;;
20669;SDS011;10494;50.868;4.180;2023-08-07T01:21:03;8.15;;;2.92;;
20669;SDS011;10494;50.868;4.180;2023-08-07T01:23:29;6.88;;;2.20;;
20669;SDS011;10494;50.868;4.180;2023-08-07T01:25:55;8.00;;;2.53;;
20669;SDS011;10494;50.868;4.180;2023-08-07T01:28:27;7.10;;;2.53;;
20669;SDS011;10494;50.868;4.180;2023-08-07T01:31:03;6.95;;;2.42;;
20669;SDS011;10494;50.868;4.180;2023-08-07T01:33:33;9.68;;;2.88;;
20669;SDS011;10494;50.868;4.180;2023-08-07T01:36:05;12.63;;;2.85;;
20669;SDS011;10494;50.868;4.180;2023-08-07T01:38:32;4.68;;;2.33;;
20669;SDS011;10494;50.868;4.180;2023-08-07T01:40:58;8.13;;;2.22;;
20669;SDS011;10494;50.868;4.180;2023-08-07T01:43:25;8.40;;;2.53;;
20669;SDS011;10494;50.868;4.180;2023-08-07T01:45:52;8.85;;;2.72;;
20669;SDS011;10494;50.868;4.180;2023-08-07T01:48:17;8.48;;;2.97;;
20669;SDS011;10494;50.868;4.180;2023-08-07T01:50:43;11.13;;;2.83;;
20669;SDS011;10494;50.868;4.180;2023-08-07T01:53:09;6.18;;;2.35;;
20669;SDS011;10494;50.868;4.180;2023-08-07T01:55:34;8.68;;;2.85;;
20669;SDS011;10494;50.868;4.180;2023-08-07T01:58:00;4.10;;;2.05;;
20669;SDS011;10494;50.868;4.180;2023-08-07T02:00:26;10.85;;;2.60;;
20669;SDS011;10494;50.868;4.180;2023-08-07T02:02:52;7.20;;;2.50;;
20669;SDS011;10494;50.868;4.180;2023-08-07T02:05:17;5.65;;;1.95;;
20669;SDS011;10494;50.868;4.180;2023-08-07T02:07:43;7.53;;;2.78;;
20669;SDS011;10494;50.868;4.180;2023-08-07T02:10:09;8.23;;;2.38;;
20669;SDS011;10494;50.868;4.180;2023-08-07T02:12:35;5.82;;;2.50;;
20669;SDS011;10494;50.868;4.180;2023-08-07T02:15:01;7.95;;;2.17;;
20669;SDS011;10494;50.868;4.180;2023-08-07T02:17:27;8.85;;;2.17;;
20669;SDS011;10494;50.868;4.180;2023-08-07T02:19:55;9.20;;;2.58;;
20669;SDS011;10494;50.868;4.180;2023-08-07T02:22:21;6.55;;;1.90;;
20669;SDS011;10494;50.868;4.180;2023-08-07T02:24:46;15.70;;;2.25;;
20669;SDS011;10494;50.868;4.180;2023-08-07T02:27:12;6.18;;;2.60;;
20669;SDS011;10494;50.868;4.180;2023-08-07T02:29:38;6.35;;;2.65;;
20669;SDS011;10494;50.868;4.180;2023-08-07T02:32:03;8.75;;;2.38;;
20669;SDS011;10494;50.868;4.180;2023-08-07T02:34:30;5.18;;;2.15;;
20669;SDS011;10494;50.868;4.180;2023-08-07T02:36:56;7.03;;;2.28;;
20669;SDS011;10494;50.868;4.180;2023-08-07T02:39:22;4.72;;;2.10;;
20669;SDS011;10494;50.868;4.180;2023-08-07T02:41:47;7.25;;;2.08;;
20669;SDS011;10494;50.868;4.180;2023-08-07T02:44:13;8.40;;;2.42;;
20669;SDS011;10494;50.868;4.180;2023-08-07T02:46:39;6.70;;;2.30;;
20669;SDS011;10494;50.868;4.180;2023-08-07T02:49:04;6.63;;;2.33;;
20669;SDS011;10494;50.868;4.180;2023-08-07T02:51:30;5.45;;;2.30;;
20669;SDS011;10494;50.868;4.180;2023-08-07T02:53:57;9.27;;;2.42;;
20669;SDS011;10494;50.868;4.180;2023-08-07T02:56:22;9.95;;;2.53;;
20669;SDS011;10494;50.868;4.180;2023-08-07T02:58:48;7.82;;;2.15;;
20669;SDS011;10494;50.868;4.180;2023-08-07T03:01:14;6.60;;;2.47;;
20669;SDS011;10494;50.868;4.180;2023-08-07T03:03:39;9.63;;;2.70;;
20669;SDS011;10494;50.868;4.180;2023-08-07T03:06:05;9.93;;;2.80;;
20669;SDS011;10494;50.868;4.180;2023-08-07T03:08:31;5.38;;;2.72;;
20669;SDS011;10494;50.868;4.180;2023-08-07T03:10:57;9.05;;;2.80;;
20669;SDS011;10494;50.868;4.180;2023-08-07T03:13:26;7.28;;;3.10;;
20669;SDS011;10494;50.868;4.180;2023-08-07T03:15:58;7.22;;;2.60;;
20669;SDS011;10494;50.868;4.180;2023-08-07T03:18:25;7.63;;;3.03;;
20669;SDS011;10494;50.868;4.180;2023-08-07T03:20:51;9.95;;;2.70;;
20669;SDS011;10494;50.868;4.180;2023-08-07T03:23:16;7.32;;;2.30;;
20669;SDS011;10494;50.868;4.180;2023-08-07T03:25:42;6.28;;;2.55;;
20669;SDS011;10494;50.868;4.180;2023-08-07T03:28:07;9.25;;;2.30;;
20669;SDS011;10494;50.868;4.180;2023-08-07T03:30:33;6.68;;;2.42;;
20669;SDS011;10494;50.868;4.180;2023-08-07T03:32:59;6.03;;;2.30;;
20669;SDS011;10494;50.868;4.180;2023-08-07T03:35:25;8.25;;;2.88;;
20669;SDS011;10494;50.868;4.180;2023-08-07T03:37:50;12.48;;;2.80;;
20669;SDS011;10494;50.868;4.180;2023-08-07T03:40:16;7.93;;;2.80;;
20669;SDS011;10494;50.868;4.180;2023-08-07T03:42:41;7.63;;;2.67;;
20669;SDS011;10494;50.868;4.180;2023-08-07T03:45:07;9.32;;;3.10;;
20669;SDS011;10494;50.868;4.180;2023-08-07T03:47:33;5.30;;;2.55;;
20669;SDS011;10494;50.868;4.180;2023-08-07T03:49:59;9.00;;;2.55;;
20669;SDS011;10494;50.868;4.180;2023-08-07T03:52:24;9.05;;;2.22;;
20669;SDS011;10494;50.868;4.180;2023-08-07T03:54:50;8.95;;;2.72;;
20669;SDS011;10494;50.868;4.180;2023-08-07T03:57:15;8.40;;;2.78;;
20669;SDS011;10494;50.868;4.180;2023-08-07T03:59:41;6.25;;;2.50;;
20669;SDS011;10494;50.868;4.180;2023-08-07T04:02:06;14.13;;;3.60;;
20669;SDS011;10494;50.868;4.180;2023-08-07T04:04:32;8.18;;;2.90;;
20669;SDS011;10494;50.868;4.180;2023-08-07T04:06:58;7.10;;;2.88;;
20669;SDS011;10494;50.868;4.180;2023-08-07T04:09:23;11.45;;;2.65;;
20669;SDS011;10494;50.868;4.180;2023-08-07T04:11:49;7.65;;;2.67;;
20669;SDS011;10494;50.868;4.180;2023-08-07T04:14:14;9.20;;;2.55;;
20669;SDS011;10494;50.868;4.180;2023-08-07T04:16:40;8.82;;;3.55;;
20669;SDS011;10494;50.868;4.180;2023-08-07T04:19:06;13.20;;;2.97;;
20669;SDS011;10494;50.868;4.180;2023-08-07T04:21:32;19.17;;;3.22;;
20669;SDS011;10494;50.868;4.180;2023-08-07T04:23:58;9.52;;;2.60;;
20669;SDS011;10494;50.868;4.180;2023-08-07T04:26:33;8.05;;;2.35;;
20669;SDS011;10494;50.868;4.180;2023-08-07T04:28:59;5.70;;;3.00;;
20669;SDS011;10494;50.868;4.180;2023-08-07T04:31:24;14.15;;;3.22;;
20669;SDS011;10494;50.868;4.180;2023-08-07T04:33:50;9.30;;;2.90;;
20669;SDS011;10494;50.868;4.180;2023-08-07T04:36:16;9.35;;;2.90;;
20669;SDS011;10494;50.868;4.180;2023-08-07T04:38:41;10.82;;;2.65;;
20669;SDS011;10494;50.868;4.180;2023-08-07T04:41:07;7.28;;;2.95;;
20669;SDS011;10494;50.868;4.180;2023-08-07T04:43:32;10.70;;;2.78;;
20669;SDS011;10494;50.868;4.180;2023-08-07T04:45:59;7.05;;;2.95;;
20669;SDS011;10494;50.868;4.180;2023-08-07T04:48:31;12.25;;;3.45;;
20669;SDS011;10494;50.868;4.180;2023-08-07T04:50:58;13.20;;;3.05;;
20669;SDS011;10494;50.868;4.180;2023-08-07T04:53:23;12.77;;;3.10;;
20669;SDS011;10494;50.868;4.180;2023-08-07T04:55:49;9.40;;;3.03;;
20669;SDS011;10494;50.868;4.180;2023-08-07T04:58:14;8.63;;;2.92;;
20669;SDS011;10494;50.868;4.180;2023-08-07T05:00:40;6.88;;;3.28;;
20669;SDS011;10494;50.868;4.180;2023-08-07T05:03:06;12.13;;;3.05;;
20669;SDS011;10494;50.868;4.180;2023-08-07T05:05:31;9.30;;;2.90;;
20669;SDS011;10494;50.868;4.180;2023-08-07T05:07:58;12.32;;;3.42;;
20669;SDS011;10494;50.868;4.180;2023-08-07T05:10:24;11.07;;;2.55;;
20669;SDS011;10494;50.868;4.180;2023-08-07T05:12:49;9.00;;;3.15;;
20669;SDS011;10494;50.868;4.180;2023-08-07T05:15:21;7.90;;;2.90;;
20669;SDS011;10494;50.868;4.180;2023-08-07T05:17:47;8.35;;;3.50;;
20669;SDS011;10494;50.868;4.180;2023-08-07T05:20:13;8.57;;;3.05;;
20669;SDS011;10494;50.868;4.180;2023-08-07T05:22:39;9.70;;;3.28;;
20669;SDS011;10494;50.868;4.180;2023-08-07T05:25:05;10.00;;;3.03;;
20669;SDS011;10494;50.868;4.180;2023-08-07T05:27:30;7.70;;;2.90;;
20669;SDS011;10494;50.868;4.180;2023-08-07T05:29:56;11.85;;;2.95;;
20669;SDS011;10494;50.868;4.180;2023-08-07T05:32:21;8.85;;;3.00;;
20669;SDS011;10494;50.868;4.180;2023-08-07T05:34:47;8.93;;;3.33;;
20669;SDS011;10494;50.868;4.180;2023-08-07T05:37:13;6.20;;;2.63;;
20669;SDS011;10494;50.868;4.180;2023-08-07T05:39:38;11.70;;;2.95;;
20669;SDS011;10494;50.868;4.180;2023-08-07T05:42:04;5.68;;;2.92;;
20669;SDS011;10494;50.868;4.180;2023-08-07T05:44:30;11.55;;;3.90;;
20669;SDS011;10494;50.868;4.180;2023-08-07T05:46:56;10.50;;;2.92;;
20669;SDS011;10494;50.868;4.180;2023-08-07T05:49:21;5.88;;;2.72;;
20669;SDS011;10494;50.868;4.180;2023-08-07T05:51:47;7.07;;;3.20;;
20669;SDS011;10494;50.868;4.180;2023-08-07T05:54:13;12.05;;;2.67;;
20669;SDS011;10494;50.868;4.180;2023-08-07T05:56:38;14.25;;;3.20;;
20669;SDS011;10494;50.868;4.180;2023-08-07T05:59:06;8.43;;;2.80;;
20669;SDS011;10494;50.868;4.180;2023-08-07T06:01:31;8.13;;;2.75;;
20669;SDS011;10494;50.868;4.180;2023-08-07T06:03:57;6.20;;;2.83;;
20669;SDS011;10494;50.868;4.180;2023-08-07T06:06:23;10.00;;;2.97;;
20669;SDS011;10494;50.868;4.180;2023-08-07T06:08:53;9.20;;;3.13;;
20669;SDS011;10494;50.868;4.180;2023-08-07T06:11:19;13.10;;;3.38;;
20669;SDS011;10494;50.868;4.180;2023-08-07T06:13:45;7.82;;;2.58;;
20669;SDS011;10494;50.868;4.180;2023-08-07T06:16:10;8.15;;;3.08;;
20669;SDS011;10494;50.868;4.180;2023-08-07T06:18:36;8.07;;;3.33;;
20669;SDS011;10494;50.868;4.180;2023-08-07T06:21:02;11.10;;;3.10;;
20669;SDS011;10494;50.868;4.180;2023-08-07T06:23:32;6.00;;;2.70;;
20669;SDS011;10494;50.868;4.180;2023-08-07T06:25:58;11.48;;;3.13;;
20669;SDS011;10494;50.868;4.180;2023-08-07T06:28:24;8.93;;;2.60;;
20669;SDS011;10494;50.868;4.180;2023-08-07T06:30:49;13.05;;;3.15;;
20669;SDS011;10494;50.868;4.180;2023-08-07T06:33:15;9.18;;;3.30;;
20669;SDS011;10494;50.868;4.180;2023-08-07T06:35:40;11.73;;;3.45;;
20669;SDS011;10494;50.868;4.180;2023-08-07T06:38:07;10.48;;;3.53;;
20669;SDS011;10494;50.868;4.180;2023-08-07T06:40:37;7.35;;;3.08;;
20669;SDS011;10494;50.868;4.180;2023-08-07T06:43:03;8.27;;;3.45;;
20669;SDS011;10494;50.868;4.180;2023-08-07T06:45:28;11.85;;;3.28;;
20669;SDS011;10494;50.868;4.180;2023-08-07T06:47:54;11.10;;;3.33;;
20669;SDS011;10494;50.868;4.180;2023-08-07T06:50:19;9.25;;;2.83;;
20669;SDS011;10494;50.868;4.180;2023-08-07T06:52:45;8.00;;;3.08;;
20669;SDS011;10494;50.868;4.180;2023-08-07T06:55:11;10.40;;;3.33;;
20669;SDS011;10494;50.868;4.180;2023-08-07T06:57:36;12.48;;;3.58;;
20669;SDS011;10494;50.868;4.180;2023-08-07T07:00:02;9.98;;;2.95;;
20669;SDS011;10494;50.868;4.180;2023-08-07T07:02:29;9.43;;;3.10;;
20669;SDS011;10494;50.868;4.180;2023-08-07T07:04:54;9.07;;;2.72;;
20669;SDS011;10494;50.868;4.180;2023-08-07T07:07:20;10.57;;;3.55;;
20669;SDS011;10494;50.868;4.180;2023-08-07T07:09:46;9.55;;;2.72;;
20669;SDS011;10494;50.868;4.180;2023-08-07T07:12:11;8.63;;;2.67;;
20669;SDS011;10494;50.868;4.180;2023-08-07T07:14:37;9.20;;;3.92;;
20669;SDS011;10494;50.868;4.180;2023-08-07T07:17:03;15.05;;;2.65;;
20669;SDS011;10494;50.868;4.180;2023-08-07T07:19:28;8.73;;;2.90;;
20669;SDS011;10494;50.868;4.180;2023-08-07T07:21:54;8.32;;;2.45;;
20669;SDS011;10494;50.868;4.180;2023-08-07T07:24:20;8.00;;;2.90;;
20669;SDS011;10494;50.868;4.180;2023-08-07T07:26:45;6.63;;;2.80;;
20669;SDS011;10494;50.868;4.180;2023-08-07T07:29:11;10.20;;;3.03;;
20669;SDS011;10494;50.868;4.180;2023-08-07T07:31:37;9.25;;;2.55;;
20669;SDS011;10494;50.868;4.180;2023-08-07T07:34:03;10.77;;;2.70;;
20669;SDS011;10494;50.868;4.180;2023-08-07T07:36:28;6.57;;;2.55;;
20669;SDS011;10494;50.868;4.180;2023-08-07T07:38:54;9.13;;;3.58;;
20669;SDS011;10494;50.868;4.180;2023-08-07T07:41:21;12.82;;;3.78;;
20669;SDS011;10494;50.868;4.180;2023-08-07T07:43:47;9.55;;;2.45;;
20669;SDS011;10494;50.868;4.180;2023-08-07T07:46:13;6.03;;;2.28;;
20669;SDS011;10494;50.868;4.180;2023-08-07T07:48:38;8.43;;;2.40;;
20669;SDS011;10494;50.868;4.180;2023-08-07T07:51:04;6.32;;;2.40;;
20669;SDS011;10494;50.868;4.180;2023-08-07T07:53:30;4.55;;;2.20;;
20669;SDS011;10494;50.868;4.180;2023-08-07T07:55:56;10.15;;;2.15;;
20669;SDS011;10494;50.868;4.180;2023-08-07T07:58:22;5.65;;;2.22;;
20669;SDS011;10494;50.868;4.180;2023-08-07T08:00:48;5.07;;;2.15;;
20669;SDS011;10494;50.868;4.180;2023-08-07T08:03:14;5.68;;;1.50;;
20669;SDS011;10494;50.868;4.180;2023-08-07T08:05:40;5.28;;;2.05;;
20669;SDS011;10494;50.868;4.180;2023-08-07T08:08:06;6.80;;;1.95;;
20669;SDS011;10494;50.868;4.180;2023-08-07T08:10:35;9.45;;;2.30;;
20669;SDS011;10494;50.868;4.180;2023-08-07T08:13:01;4.55;;;1.77;;
20669;SDS011;10494;50.868;4.180;2023-08-07T08:15:29;5.90;;;2.03;;
20669;SDS011;10494;50.868;4.180;2023-08-07T08:17:54;5.47;;;1.73;;
20669;SDS011;10494;50.868;4.180;2023-08-07T08:20:20;4.38;;;1.92;;
20669;SDS011;10494;50.868;4.180;2023-08-07T08:22:46;4.40;;;1.67;;
20669;SDS011;10494;50.868;4.180;2023-08-07T08:25:12;8.82;;;2.00;;
20669;SDS011;10494;50.868;4.180;2023-08-07T08:27:38;4.35;;;1.85;;
20669;SDS011;10494;50.868;4.180;2023-08-07T08:30:05;4.80;;;1.73;;
20669;SDS011;10494;50.868;4.180;2023-08-07T08:32:31;4.32;;;1.63;;
20669;SDS011;10494;50.868;4.180;2023-08-07T08:34:57;7.68;;;1.88;;
20669;SDS011;10494;50.868;4.180;2023-08-07T08:37:23;6.10;;;1.70;;
20669;SDS011;10494;50.868;4.180;2023-08-07T08:39:49;5.28;;;1.58;;
20669;SDS011;10494;50.868;4.180;2023-08-07T08:42:14;4.78;;;1.88;;
20669;SDS011;10494;50.868;4.180;2023-08-07T08:44:44;4.88;;;2.03;;
20669;SDS011;10494;50.868;4.180;2023-08-07T08:47:16;4.57;;;1.80;;
20669;SDS011;10494;50.868;4.180;2023-08-07T08:49:55;4.68;;;1.50;;
20669;SDS011;10494;50.868;4.180;2023-08-07T08:52:38;7.88;;;2.03;;
20669;SDS011;10494;50.868;4.180;2023-08-07T08:55:05;5.43;;;2.63;;
20669;SDS011;10494;50.868;4.180;2023-08-07T08:57:32;3.85;;;1.77;;
20669;SDS011;10494;50.868;4.180;2023-08-07T08:59:59;5.68;;;2.65;;
20669;SDS011;10494;50.868;4.180;2023-08-07T09:02:25;6.10;;;2.22;;
20669;SDS011;10494;50.868;4.180;2023-08-07T09:04:51;7.65;;;2.38;;
20669;SDS011;10494;50.868;4.180;2023-08-07T09:07:17;5.97;;;2.50;;
20669;SDS011;10494;50.868;4.180;2023-08-07T09:09:45;3.78;;;2.10;;
20669;SDS011;10494;50.868;4.180;2023-08-07T09:12:23;3.75;;;2.70;;
20669;SDS011;10494;50.868;4.180;2023-08-07T09:14:58;7.68;;;2.10;;
20669;SDS011;10494;50.868;4.180;2023-08-07T09:17:27;5.22;;;2.22;;
20669;SDS011;10494;50.868;4.180;2023-08-07T09:19:54;4.97;;;2.45;;
20669;SDS011;10494;50.868;4.180;2023-08-07T09:22:21;4.60;;;1.95;;
20669;SDS011;10494;50.868;4.180;2023-08-07T09:24:46;4.35;;;1.70;;
20669;SDS011;10494;50.868;4.180;2023-08-07T09:27:12;5.15;;;1.70;;
20669;SDS011;10494;50.868;4.180;2023-08-07T09:29:43;4.95;;;1.88;;
20669;SDS011;10494;50.868;4.180;2023-08-07T09:32:11;2.95;;;1.80;;
20669;SDS011;10494;50.868;4.180;2023-08-07T09:34:38;3.72;;;1.88;;
20669;SDS011;10494;50.868;4.180;2023-08-07T09:37:05;6.10;;;2.30;;
20669;SDS011;10494;50.868;4.180;2023-08-07T09:39:32;4.45;;;1.92;;
20669;SDS011;10494;50.868;4.180;2023-08-07T09:41:57;4.03;;;1.73;;
20669;SDS011;10494;50.868;4.180;2023-08-07T09:44:23;3.63;;;1.80;;
20669;SDS011;10494;50.868;4.180;2023-08-07T09:46:49;3.17;;;1.60;;
20669;SDS011;10494;50.868;4.180;2023-08-07T09:49:14;2.70;;;1.60;;
20669;SDS011;10494;50.868;4.180;2023-08-07T09:51:44;2.33;;;1.63;;
20669;SDS011;10494;50.868;4.180;2023-08-07T09:54:12;6.95;;;1.73;;
20669;SDS011;10494;50.868;4.180;2023-08-07T09:56:38;5.20;;;1.33;;
20669;SDS011;10494;50.868;4.180;2023-08-07T09:59:07;3.35;;;2.20;;
20669;SDS011;10494;50.868;4.180;2023-08-07T10:01:33;3.53;;;1.60;;
20669;SDS011;10494;50.868;4.180;2023-08-07T10:04:02;2.67;;;1.45;;
20669;SDS011;10494;50.868;4.180;2023-08-07T10:06:28;2.30;;;1.65;;
20669;SDS011;10494;50.868;4.180;2023-08-07T10:08:54;4.32;;;1.50;;
20669;SDS011;10494;50.868;4.180;2023-08-07T10:11:21;3.90;;;1.75;;
20669;SDS011;10494;50.868;4.180;2023-08-07T10:13:47;5.28;;;1.67;;
20669;SDS011;10494;50.868;4.180;2023-08-07T10:16:13;3.38;;;1.65;;
20669;SDS011;10494;50.868;4.180;2023-08-07T10:18:39;3.25;;;1.70;;
20669;SDS011;10494;50.868;4.180;2023-08-07T10:21:05;4.75;;;2.33;;
20669;SDS011;10494;50.868;4.180;2023-08-07T10:23:35;7.82;;;5.25;;
20669;SDS011;10494;50.868;4.180;2023-08-07T10:26:03;5.72;;;1.92;;
20669;SDS011;10494;50.868;4.180;2023-08-07T10:28:31;4.07;;;1.52;;
20669;SDS011;10494;50.868;4.180;2023-08-07T10:31:02;3.83;;;1.52;;
20669;SDS011;10494;50.868;4.180;2023-08-07T10:33:29;3.17;;;1.70;;
20669;SDS011;10494;50.868;4.180;2023-08-07T10:35:57;2.42;;;1.55;;
20669;SDS011;10494;50.868;4.180;2023-08-07T10:38:24;3.75;;;1.88;;
20669;SDS011;10494;50.868;4.180;2023-08-07T10:43:28;4.80;;;2.10;;
20669;SDS011;10494;50.868;4.180;2023-08-07T10:46:05;3.60;;;1.65;;
20669;SDS011;10494;50.868;4.180;2023-08-07T10:48:37;2.80;;;1.60;;
20669;SDS011;10494;50.868;4.180;2023-08-07T10:51:07;2.70;;;1.48;;
20669;SDS011;10494;50.868;4.180;2023-08-07T10:53:34;3.15;;;1.30;;
20669;SDS011;10494;50.868;4.180;2023-08-07T10:56:02;2.10;;;1.60;;
20669;SDS011;10494;50.868;4.180;2023-08-07T10:58:29;2.35;;;1.45;;
20669;SDS011;10494;50.868;4.180;2023-08-07T11:03:40;3.10;;;1.65;;
20669;SDS011;10494;50.868;4.180;2023-08-07T11:06:09;5.38;;;1.65;;
20669;SDS011;10494;50.868;4.180;2023-08-07T11:08:35;2.72;;;1.60;;
20669;SDS011;10494;50.868;4.180;2023-08-07T11:11:05;5.18;;;1.70;;
20669;SDS011;10494;50.868;4.180;2023-08-07T11:13:31;4.55;;;1.65;;
20669;SDS011;10494;50.868;4.180;2023-08-07T11:16:01;2.53;;;1.52;;
20669;SDS011;10494;50.868;4.180;2023-08-07T11:18:27;6.10;;;1.70;;
20669;SDS011;10494;50.868;4.180;2023-08-07T11:20:54;2.80;;;1.33;;
20669;SDS011;10494;50.868;4.180;2023-08-07T11:23:26;4.45;;;1.65;;
20669;SDS011;10494;50.868;4.180;2023-08-07T11:25:52;3.08;;;1.42;;
20669;SDS011;10494;50.868;4.180;2023-08-07T11:28:19;1.90;;;1.55;;
20669;SDS011;10494;50.868;4.180;2023-08-07T11:30:49;2.70;;;1.67;;
20669;SDS011;10494;50.868;4.180;2023-08-07T11:33:19;3.08;;;1.45;;
20669;SDS011;10494;50.868;4.180;2023-08-07T11:35:45;2.70;;;1.40;;
20669;SDS011;10494;50.868;4.180;2023-08-07T11:38:12;4.60;;;1.50;;
20669;SDS011;10494;50.868;4.180;2023-08-07T11:40:38;2.08;;;1.35;;
20669;SDS011;10494;50.868;4.180;2023-08-07T11:43:04;3.13;;;1.60;;
20669;SDS011;10494;50.868;4.180;2023-08-07T11:45:29;2.08;;;1.20;;
20669;SDS011;10494;50.868;4.180;2023-08-07T11:47:55;2.78;;;1.58;;
20669;SDS011;10494;50.868;4.180;2023-08-07T11:50:25;3.55;;;1.40;;
20669;SDS011;10494;50.868;4.180;2023-08-07T11:52:53;5.45;;;1.50;;
20669;SDS011;10494;50.868;4.180;2023-08-07T11:55:19;2.67;;;1.48;;
20669;SDS011;10494;50.868;4.180;2023-08-07T11:57:46;2.58;;;1.52;;
20669;SDS011;10494;50.868;4.180;2023-08-07T12:00:12;2.30;;;1.40;;
20669;SDS011;10494;50.868;4.180;2023-08-07T12:02:45;3.60;;;1.40;;
20669;SDS011;10494;50.868;4.180;2023-08-07T12:05:10;7.80;;;1.70;;
20669;SDS011;10494;50.868;4.180;2023-08-07T12:07:37;2.92;;;1.10;;
20669;SDS011;10494;50.868;4.180;2023-08-07T12:10:07;2.95;;;1.40;;
20669;SDS011;10494;50.868;4.180;2023-08-07T12:12:37;4.30;;;1.40;;
20669;SDS011;10494;50.868;4.180;2023-08-07T12:15:07;5.68;;;1.50;;
20669;SDS011;10494;50.868;4.180;2023-08-07T12:17:35;5.05;;;1.40;;
20669;SDS011;10494;50.868;4.180;2023-08-07T12:20:06;2.53;;;1.42;;
20669;SDS011;10494;50.868;4.180;2023-08-07T12:22:35;2.05;;;1.40;;
20669;SDS011;10494;50.868;4.180;2023-08-07T12:25:01;3.83;;;1.40;;
20669;SDS011;10494;50.868;4.180;2023-08-07T12:27:27;1.27;;;1.13;;
20669;SDS011;10494;50.868;4.180;2023-08-07T12:29:53;4.32;;;1.50;;
20669;SDS011;10494;50.868;4.180;2023-08-07T12:32:18;2.50;;;1.20;;
20669;SDS011;10494;50.868;4.180;2023-08-07T12:34:44;1.98;;;1.20;;
20669;SDS011;10494;50.868;4.180;2023-08-07T12:37:10;3.45;;;1.27;;
20669;SDS011;10494;50.868;4.180;2023-08-07T12:39:35;1.80;;;1.15;;
20669;SDS011;10494;50.868;4.180;2023-08-07T12:42:01;3.53;;;1.05;;
20669;SDS011;10494;50.868;4.180;2023-08-07T12:44:28;2.55;;;1.50;;
20669;SDS011;10494;50.868;4.180;2023-08-07T12:46:54;1.63;;;1.10;;
20669;SDS011;10494;50.868;4.180;2023-08-07T12:49:20;2.10;;;1.00;;
20669;SDS011;10494;50.868;4.180;2023-08-07T12:51:45;3.40;;;1.17;;
20669;SDS011;10494;50.868;4.180;2023-08-07T12:54:11;3.13;;;1.00;;
20669;SDS011;10494;50.868;4.180;2023-08-07T12:56:36;3.70;;;1.05;;
20669;SDS011;10494;50.868;4.180;2023-08-07T12:59:02;1.73;;;1.10;;
20669;SDS011;10494;50.868;4.180;2023-08-07T13:01:28;3.08;;;0.95;;
20669;SDS011;10494;50.868;4.180;2023-08-07T13:03:53;3.35;;;1.00;;
20669;SDS011;10494;50.868;4.180;2023-08-07T13:06:19;1.77;;;1.08;;
20669;SDS011;10494;50.868;4.180;2023-08-07T13:08:45;0.75;;;0.70;;
20669;SDS011;10494;50.868;4.180;2023-08-07T13:11:11;1.15;;;1.00;;
20669;SDS011;10494;50.868;4.180;2023-08-07T13:13:37;2.95;;;1.10;;
20669;SDS011;10494;50.868;4.180;2023-08-07T13:16:03;1.23;;;1.02;;
20669;SDS011;10494;50.868;4.180;2023-08-07T13:18:29;2.55;;;0.85;;
20669;SDS011;10494;50.868;4.180;2023-08-07T13:20:54;2.65;;;1.23;;
20669;SDS011;10494;50.868;4.180;2023-08-07T13:23:21;2.72;;;1.00;;
20669;SDS011;10494;50.868;4.180;2023-08-07T13:25:47;2.50;;;1.00;;
20669;SDS011;10494;50.868;4.180;2023-08-07T13:28:12;2.80;;;1.00;;
20669;SDS011;10494;50.868;4.180;2023-08-07T13:30:39;1.38;;;0.90;;
20669;SDS011;10494;50.868;4.180;2023-08-07T13:33:04;2.22;;;1.33;;
20669;SDS011;10494;50.868;4.180;2023-08-07T13:35:30;4.20;;;1.15;;
20669;SDS011;10494;50.868;4.180;2023-08-07T13:37:57;5.05;;;0.70;;
20669;SDS011;10494;50.868;4.180;2023-08-07T13:40:23;2.00;;;0.90;;
20669;SDS011;10494;50.868;4.180;2023-08-07T13:42:49;4.22;;;1.30;;
20669;SDS011;10494;50.868;4.180;2023-08-07T13:45:15;7.45;;;1.45;;
20669;SDS011;10494;50.868;4.180;2023-08-07T13:47:42;1.55;;;0.90;;
20669;SDS011;10494;50.868;4.180;2023-08-07T13:50:07;1.75;;;0.80;;
20669;SDS011;10494;50.868;4.180;2023-08-07T13:52:37;2.35;;;1.05;;
20669;SDS011;10494;50.868;4.180;2023-08-07T13:55:03;3.05;;;1.40;;
20669;SDS011;10494;50.868;4.180;2023-08-07T13:57:29;15.93;;;1.10;;
20669;SDS011;10494;50.868;4.180;2023-08-07T13:59:55;3.35;;;0.90;;
20669;SDS011;10494;50.868;4.180;2023-08-07T14:02:20;4.70;;;1.13;;
20669;SDS011;10494;50.868;4.180;2023-08-07T14:04:46;4.85;;;1.13;;
20669;SDS011;10494;50.868;4.180;2023-08-07T14:07:11;2.55;;;1.00;;
20669;SDS011;10494;50.868;4.180;2023-08-07T14:09:38;2.28;;;1.20;;
20669;SDS011;10494;50.868;4.180;2023-08-07T14:12:03;3.00;;;0.98;;
20669;SDS011;10494;50.868;4.180;2023-08-07T14:14:29;1.33;;;0.73;;
20669;SDS011;10494;50.868;4.180;2023-08-07T14:16:55;1.30;;;0.70;;
20669;SDS011;10494;50.868;4.180;2023-08-07T14:19:23;2.22;;;1.00;;
20669;SDS011;10494;50.868;4.180;2023-08-07T14:21:49;3.30;;;0.80;;
20669;SDS011;10494;50.868;4.180;2023-08-07T14:24:16;1.50;;;0.90;;
20669;SDS011;10494;50.868;4.180;2023-08-07T14:26:42;1.35;;;0.70;;
20669;SDS011;10494;50.868;4.180;2023-08-07T14:29:08;2.78;;;0.90;;
20669;SDS011;10494;50.868;4.180;2023-08-07T14:31:33;4.70;;;0.80;;
20669;SDS011;10494;50.868;4.180;2023-08-07T14:33:59;3.22;;;0.90;;
20669;SDS011;10494;50.868;4.180;2023-08-07T14:36:25;1.75;;;0.80;;
20669;SDS011;10494;50.868;4.180;2023-08-07T14:38:51;1.17;;;0.70;;
20669;SDS011;10494;50.868;4.180;2023-08-07T14:41:17;2.88;;;0.80;;
20669;SDS011;10494;50.868;4.180;2023-08-07T14:43:44;3.70;;;0.80;;
20669;SDS011;10494;50.868;4.180;2023-08-07T14:46:10;1.48;;;0.90;;
20669;SDS011;10494;50.868;4.180;2023-08-07T14:48:36;2.25;;;0.82;;
20669;SDS011;10494;50.868;4.180;2023-08-07T14:51:02;1.23;;;0.88;;